createdAt,value
2023-04-17T00:02:25.557Z,10.16
2023-04-17T00:04:52.469Z,9.95
2023-04-17T00:07:22.460Z,9.88
2023-04-17T00:09:48.993Z,9.84
2023-04-17T00:12:15.489Z,9.85
2023-04-17T00:14:42.006Z,9.83
2023-04-17T00:17:08.422Z,9.80
2023-04-17T00:19:34.829Z,9.82
2023-04-17T00:22:01.198Z,9.79
2023-04-17T00:24:27.568Z,9.80
2023-04-17T00:26:53.934Z,9.70
2023-04-17T00:29:20.339Z,9.69
2023-04-17T00:31:46.788Z,9.65
2023-04-17T00:34:13.261Z,9.73
2023-04-17T00:36:39.667Z,9.74
2023-04-17T00:39:06.045Z,9.78
2023-04-17T00:41:32.417Z,9.72
2023-04-17T00:43:58.767Z,9.82
2023-04-17T00:46:25.408Z,9.74
2023-04-17T00:48:51.858Z,9.81
2023-04-17T00:51:18.250Z,9.81
2023-04-17T00:53:45.539Z,9.82
2023-04-17T00:56:11.956Z,9.95
2023-04-17T00:58:38.477Z,9.77
2023-04-17T01:01:05.953Z,9.67
2023-04-17T01:03:33.115Z,9.71
2023-04-17T01:05:59.797Z,9.78
2023-04-17T01:08:26.174Z,9.78
2023-04-17T01:10:52.635Z,9.90
2023-04-17T01:13:19.068Z,9.78
2023-04-17T01:15:46.806Z,9.68
2023-04-17T01:18:13.191Z,9.72
2023-04-17T01:20:39.589Z,9.78
2023-04-17T01:23:05.952Z,9.78
2023-04-17T01:25:32.373Z,9.59
2023-04-17T01:27:58.776Z,9.47
2023-04-17T01:30:25.329Z,9.29
2023-04-17T01:32:53.983Z,9.57
2023-04-17T01:35:20.513Z,9.39
2023-04-17T01:37:46.913Z,9.29
2023-04-17T01:40:13.600Z,9.43
2023-04-17T01:42:40.305Z,9.49
2023-04-17T01:45:07.296Z,9.51
2023-04-17T01:47:33.756Z,9.46
2023-04-17T01:50:00.746Z,9.55
2023-04-17T01:52:27.109Z,9.65
2023-04-17T01:54:53.494Z,9.71
2023-04-17T01:57:19.910Z,9.73
2023-04-17T01:59:46.269Z,9.58
2023-04-17T02:02:12.731Z,9.35
2023-04-17T02:04:39.280Z,9.25
2023-04-17T02:07:05.843Z,9.12
2023-04-17T02:09:32.310Z,9.22
2023-04-17T02:11:58.682Z,9.06
2023-04-17T02:14:25.208Z,9.08
2023-04-17T02:16:53.622Z,9.13
2023-04-17T02:19:20.001Z,9.00
2023-04-17T02:21:46.398Z,9.00
2023-04-17T02:24:12.775Z,8.93
2023-04-17T02:26:40.424Z,8.96
2023-04-17T02:29:06.823Z,9.20
2023-04-17T02:31:33.347Z,9.18
2023-04-17T02:33:59.779Z,9.04
2023-04-17T02:36:27.118Z,9.00
2023-04-17T02:38:53.485Z,8.93
2023-04-17T02:41:19.858Z,8.92
2023-04-17T02:43:46.933Z,8.96
2023-04-17T02:46:13.375Z,8.92
2023-04-17T02:48:39.754Z,8.91
2023-04-17T02:51:06.164Z,8.95
2023-04-17T02:53:32.528Z,9.03
2023-04-17T02:55:58.899Z,9.04
2023-04-17T02:58:25.284Z,9.03
2023-04-17T03:00:51.703Z,8.97
2023-04-17T03:03:18.272Z,8.96
2023-04-17T03:05:44.862Z,9.01
2023-04-17T03:08:11.244Z,8.94
2023-04-17T03:10:37.649Z,8.81
2023-04-17T03:13:04.403Z,8.91
2023-04-17T03:15:30.994Z,9.02
2023-04-17T03:17:57.419Z,8.99
2023-04-17T03:20:23.879Z,8.87
2023-04-17T03:22:50.477Z,8.95
2023-04-17T03:25:16.951Z,8.96
2023-04-17T03:27:43.360Z,8.71
2023-04-17T03:30:10.194Z,8.73
2023-04-17T03:32:37.977Z,8.67
2023-04-17T03:35:04.915Z,8.75
2023-04-17T03:37:32.182Z,8.69
2023-04-17T03:39:58.620Z,8.74
2023-04-17T03:42:26.651Z,8.83
2023-04-17T03:44:53.041Z,8.73
2023-04-17T03:47:19.483Z,8.64
2023-04-17T03:49:45.891Z,8.77
2023-04-17T03:52:12.320Z,8.63
2023-04-17T03:54:38.736Z,8.65
2023-04-17T03:57:05.284Z,8.74
2023-04-17T03:59:31.804Z,8.76
2023-04-17T04:01:58.426Z,8.65
2023-04-17T04:04:25.396Z,8.72
2023-04-17T04:06:54.297Z,8.84
2023-04-17T04:09:21.202Z,8.91
2023-04-17T04:11:47.656Z,8.83
2023-04-17T04:14:14.555Z,8.85
2023-04-17T04:16:41.264Z,8.72
2023-04-17T04:19:07.677Z,8.84
2023-04-17T04:21:34.431Z,8.83
2023-04-17T04:24:00.974Z,8.73
2023-04-17T04:26:27.368Z,8.66
2023-04-17T04:28:53.825Z,8.68
2023-04-17T04:31:20.631Z,8.68
2023-04-17T04:33:47.294Z,8.66
2023-04-17T04:36:20.892Z,8.68
2023-04-17T04:38:49.730Z,8.71
2023-04-17T04:41:17.573Z,8.61
2023-04-17T04:43:44.238Z,8.72
2023-04-17T04:46:11.469Z,8.73
2023-04-17T04:48:39.406Z,8.66
2023-04-17T04:51:07.825Z,8.63
2023-04-17T04:53:34.198Z,8.61
2023-04-17T04:56:00.689Z,8.57
2023-04-17T04:58:29.451Z,8.51
2023-04-17T05:00:56.236Z,8.57
2023-04-17T05:03:23.443Z,8.52
2023-04-17T05:05:50.475Z,8.61
2023-04-17T05:08:16.933Z,8.54
2023-04-17T05:10:43.339Z,8.60
2023-04-17T05:13:10.210Z,8.60
2023-04-17T05:15:36.609Z,8.52
2023-04-17T05:18:03.099Z,8.49
2023-04-17T05:20:29.665Z,8.66
2023-04-17T05:22:56.617Z,8.61
2023-04-17T05:25:23.184Z,8.71
2023-04-17T05:27:49.592Z,8.53
2023-04-17T05:30:16.001Z,8.59
2023-04-17T05:32:42.495Z,8.57
2023-04-17T05:35:09.023Z,8.60
2023-04-17T05:37:35.407Z,8.69
2023-04-17T05:40:02.539Z,8.72
2023-04-17T05:42:28.943Z,8.83
2023-04-17T05:44:55.330Z,8.63
2023-04-17T05:47:21.755Z,8.85
2023-04-17T05:49:51.069Z,8.69
2023-04-17T05:52:17.630Z,8.74
2023-04-17T05:54:44.114Z,8.73
2023-04-17T05:57:10.663Z,8.83
2023-04-17T05:59:37.051Z,8.86
2023-04-17T06:02:04.747Z,9.06
2023-04-17T06:04:32.081Z,8.76
2023-04-17T06:06:58.793Z,8.79
2023-04-17T06:09:25.790Z,8.89
2023-04-17T06:11:52.303Z,9.10
2023-04-17T06:14:18.749Z,8.91
2023-04-17T06:16:45.355Z,8.81
2023-04-17T06:19:12.139Z,9.02
2023-04-17T06:21:38.772Z,8.95
2023-04-17T06:24:05.637Z,9.11
2023-04-17T06:26:32.067Z,9.18
2023-04-17T06:28:58.418Z,8.93
2023-04-17T06:31:25.184Z,8.87
2023-04-17T06:33:51.583Z,8.91
2023-04-17T06:36:18.004Z,8.86
2023-04-17T06:38:44.414Z,8.88
2023-04-17T06:41:10.792Z,8.85
2023-04-17T06:43:37.215Z,8.79
2023-04-17T06:46:03.646Z,9.08
2023-04-17T06:48:30.203Z,8.89
2023-04-17T06:50:56.598Z,9.01
2023-04-17T06:53:22.962Z,9.32
2023-04-17T06:55:49.418Z,9.58
2023-04-17T06:58:15.818Z,9.69
2023-04-17T07:00:42.234Z,9.53
2023-04-17T07:03:08.720Z,9.35
2023-04-17T07:05:35.241Z,9.65
2023-04-17T07:08:01.702Z,9.59
2023-04-17T07:10:28.086Z,9.53
2023-04-17T07:12:55.192Z,9.88
2023-04-17T07:15:21.672Z,9.37
2023-04-17T07:17:48.164Z,9.23
2023-04-17T07:20:14.594Z,9.28
2023-04-17T07:22:41.400Z,9.30
2023-04-17T07:25:08.058Z,9.71
2023-04-17T07:27:34.446Z,9.72
2023-04-17T07:30:00.901Z,9.77
2023-04-17T07:32:28.340Z,9.85
2023-04-17T07:34:54.743Z,9.79
2023-04-17T07:37:21.392Z,9.69
2023-04-17T07:39:50.961Z,9.62
2023-04-17T07:42:17.377Z,9.85
2023-04-17T07:44:43.814Z,10.25
2023-04-17T07:47:10.389Z,10.41
2023-04-17T07:49:36.901Z,10.19
2023-04-17T07:52:03.468Z,10.42
2023-04-17T07:54:31.188Z,10.26
2023-04-17T07:57:02.662Z,10.05
2023-04-17T07:59:29.812Z,10.27
2023-04-17T08:01:57.169Z,10.33
2023-04-17T08:04:24.938Z,10.52
2023-04-17T08:06:52.160Z,10.64
2023-04-17T08:09:18.528Z,10.48
2023-04-17T08:11:56.138Z,10.75
2023-04-17T08:14:23.797Z,10.87
2023-04-17T08:16:50.506Z,10.98
2023-04-17T08:19:17.023Z,11.11
2023-04-17T08:21:43.433Z,11.04
2023-04-17T08:24:09.810Z,11.53
2023-04-17T08:26:36.361Z,11.14
2023-04-17T08:29:04.439Z,11.64
2023-04-17T08:31:31.367Z,11.56
2023-04-17T08:34:10.949Z,11.48
2023-04-17T08:36:40.679Z,11.62
2023-04-17T08:39:07.118Z,11.67
2023-04-17T08:41:40.616Z,11.64
2023-04-17T08:44:06.994Z,11.38
2023-04-17T08:46:34.513Z,11.48
2023-04-17T08:49:02.962Z,11.72
2023-04-17T08:51:29.353Z,11.73
2023-04-17T08:53:55.744Z,11.24
2023-04-17T08:56:22.728Z,11.35
2023-04-17T08:58:49.083Z,11.57
2023-04-17T09:01:20.463Z,11.69
2023-04-17T09:03:48.122Z,11.74
2023-04-17T09:06:15.379Z,12.14
2023-04-17T09:09:14.345Z,11.60
2023-04-17T09:11:40.733Z,11.85
2023-04-17T09:14:07.107Z,12.03
2023-04-17T09:16:34.120Z,11.83
2023-04-17T09:19:06.997Z,11.74
2023-04-17T09:21:33.406Z,11.91
2023-04-17T09:23:59.876Z,11.81
2023-04-17T09:26:27.268Z,12.13
2023-04-17T09:29:04.267Z,12.36
2023-04-17T09:31:34.147Z,12.55
2023-04-17T09:34:04.731Z,12.48
2023-04-17T09:36:33.769Z,12.69
2023-04-17T09:39:03.390Z,13.11
2023-04-17T09:41:31.767Z,12.67
2023-04-17T09:44:05.278Z,12.63
2023-04-17T09:46:37.863Z,12.59
2023-04-17T09:49:09.813Z,13.03
2023-04-17T09:51:36.860Z,13.21
2023-04-17T09:54:06.900Z,12.63
2023-04-17T09:56:35.857Z,12.58
2023-04-17T09:59:06.102Z,12.88
2023-04-17T10:01:33.941Z,12.87
2023-04-17T10:04:01.855Z,13.18
2023-04-17T10:06:31.070Z,13.46
2023-04-17T10:08:57.875Z,13.76
2023-04-17T10:11:26.393Z,14.15
2023-04-17T10:14:21.487Z,13.83
2023-04-17T10:16:49.139Z,13.87
2023-04-17T10:19:36.569Z,13.30
2023-04-17T10:22:18.150Z,13.23
2023-04-17T10:24:48.767Z,13.17
2023-04-17T10:27:36.147Z,13.41
2023-04-17T10:30:04.549Z,13.06
2023-04-17T10:32:32.085Z,13.59
2023-04-17T10:35:00.842Z,13.76
2023-04-17T10:37:52.263Z,13.68
2023-04-17T10:40:23.231Z,14.30
2023-04-17T10:43:17.134Z,15.02
2023-04-17T10:46:12.956Z,14.19
2023-04-17T10:48:42.861Z,14.04
2023-04-17T10:51:21.605Z,14.09
2023-04-17T10:53:51.847Z,14.18
2023-04-17T10:56:38.900Z,14.05
2023-04-17T10:59:09.878Z,14.43
2023-04-17T11:01:48.566Z,15.10
2023-04-17T11:04:22.986Z,15.55
2023-04-17T11:06:49.871Z,14.49
2023-04-17T11:09:16.537Z,14.42
2023-04-17T11:11:44.898Z,14.49
2023-04-17T11:14:14.462Z,13.77
2023-04-17T11:16:43.007Z,13.78
2023-04-17T11:19:10.301Z,13.80
2023-04-17T11:21:44.162Z,13.48
2023-04-17T11:24:11.026Z,13.66
2023-04-17T11:26:47.349Z,14.03
2023-04-17T11:29:21.720Z,14.20
2023-04-17T11:31:49.412Z,14.80
2023-04-17T11:34:16.872Z,14.31
2023-04-17T11:36:54.308Z,14.84
2023-04-17T11:39:21.690Z,15.41
2023-04-17T11:41:48.401Z,15.09
2023-04-17T11:44:18.175Z,15.01
2023-04-17T11:46:58.553Z,15.29
2023-04-17T11:49:29.281Z,15.99
2023-04-17T11:51:58.725Z,15.10
2023-04-17T11:54:38.079Z,14.70
2023-04-17T11:57:06.426Z,13.91
2023-04-17T11:59:37.753Z,14.70
2023-04-17T12:02:06.975Z,15.65
2023-04-17T12:04:34.895Z,15.80
2023-04-17T12:07:02.632Z,16.15
2023-04-17T12:09:31.753Z,15.84
2023-04-17T12:11:59.309Z,15.74
2023-04-17T12:14:26.593Z,15.83
2023-04-17T12:16:53.087Z,16.05
2023-04-17T12:19:22.385Z,16.62
2023-04-17T12:21:48.773Z,16.84
2023-04-17T12:24:15.616Z,16.68
2023-04-17T12:26:46.777Z,16.12
2023-04-17T12:29:14.373Z,15.76
2023-04-17T12:31:41.331Z,16.12
2023-04-17T12:34:07.747Z,15.52
2023-04-17T12:36:34.242Z,14.82
2023-04-17T12:39:01.398Z,15.07
2023-04-17T12:41:27.961Z,15.39
2023-04-17T12:43:54.614Z,16.03
2023-04-17T12:46:21.407Z,16.63
2023-04-17T12:48:47.939Z,17.19
2023-04-17T12:51:14.328Z,18.07
2023-04-17T12:53:40.709Z,16.96
2023-04-17T12:56:07.429Z,15.71
2023-04-17T12:58:33.866Z,15.75
2023-04-17T13:01:00.276Z,14.94
2023-04-17T13:03:26.923Z,14.94
2023-04-17T13:05:53.582Z,15.34
2023-04-17T13:08:19.990Z,15.89
2023-04-17T13:10:46.365Z,16.23
2023-04-17T13:13:12.850Z,15.21
2023-04-17T13:15:39.321Z,14.96
2023-04-17T13:18:05.830Z,14.71
2023-04-17T13:20:32.255Z,14.87
2023-04-17T13:22:59.128Z,15.17
2023-04-17T13:25:25.753Z,14.77
2023-04-17T13:27:52.206Z,14.61
2023-04-17T13:30:18.706Z,15.09
2023-04-17T13:32:45.184Z,16.35
2023-04-17T13:35:13.409Z,16.79
2023-04-17T13:37:42.975Z,18.18
2023-04-17T13:40:12.748Z,19.46
2023-04-17T13:42:39.374Z,19.59
2023-04-17T13:45:07.001Z,18.00
2023-04-17T13:47:33.408Z,17.21
2023-04-17T13:50:00.028Z,16.64
2023-04-17T13:52:26.781Z,16.08
2023-04-17T13:54:54.251Z,16.95
2023-04-17T13:57:20.776Z,17.55
2023-04-17T13:59:47.150Z,18.38
2023-04-17T14:02:13.659Z,19.53
2023-04-17T14:04:40.306Z,20.55
2023-04-17T14:07:06.805Z,19.73
2023-04-17T14:09:33.187Z,19.87
2023-04-17T14:11:59.592Z,19.17
2023-04-17T14:14:27.145Z,19.17
2023-04-17T14:16:53.540Z,18.41
2023-04-17T14:19:20.241Z,17.76
2023-04-17T14:21:46.856Z,17.62
2023-04-17T14:24:13.231Z,16.78
2023-04-17T14:26:39.814Z,18.14
2023-04-17T14:29:06.374Z,18.67
2023-04-17T14:31:32.856Z,19.38
2023-04-17T14:33:59.270Z,19.50
2023-04-17T14:36:25.882Z,18.65
2023-04-17T14:38:53.654Z,17.92
2023-04-17T14:41:20.370Z,17.71
2023-04-17T14:43:46.798Z,18.90
2023-04-17T14:46:13.254Z,20.83
2023-04-17T14:48:54.213Z,22.44
2023-04-17T14:51:23.346Z,23.04
2023-04-17T14:53:51.099Z,23.72
2023-04-17T14:56:17.532Z,18.70
2023-04-17T14:58:43.920Z,17.70
2023-04-17T15:01:10.612Z,17.15
2023-04-17T15:03:37.316Z,17.89
2023-04-17T15:06:04.117Z,18.38
2023-04-17T15:08:31.140Z,18.61
2023-04-17T15:10:58.101Z,18.71
2023-04-17T15:13:24.623Z,18.36
2023-04-17T15:15:51.050Z,18.14
2023-04-17T15:18:17.484Z,17.31
2023-04-17T15:20:43.889Z,16.96
2023-04-17T15:23:10.271Z,16.32
2023-04-17T15:25:36.737Z,17.28
2023-04-17T15:28:03.192Z,18.75
2023-04-17T15:30:29.656Z,18.96
2023-04-17T15:32:56.099Z,17.56
2023-04-17T15:35:22.560Z,17.09
2023-04-17T15:37:49.015Z,17.89
2023-04-17T15:40:16.152Z,18.49
2023-04-17T15:42:42.549Z,17.34
2023-04-17T15:45:09.625Z,18.01
2023-04-17T15:47:36.042Z,18.69
2023-04-17T15:50:02.467Z,18.56
2023-04-17T15:52:28.865Z,19.38
2023-04-17T15:54:55.266Z,21.29
2023-04-17T15:57:22.831Z,21.14
2023-04-17T15:59:49.371Z,19.40
2023-04-17T16:02:16.212Z,20.27
2023-04-17T16:04:43.779Z,19.79
2023-04-17T16:07:11.917Z,19.60
2023-04-17T16:09:39.900Z,19.66
2023-04-17T16:12:09.946Z,20.55
2023-04-17T16:14:36.999Z,19.06
2023-04-17T16:17:03.745Z,19.40
2023-04-17T16:19:30.752Z,21.00
2023-04-17T16:21:57.486Z,21.30
2023-04-17T16:24:25.177Z,20.61
2023-04-17T16:26:55.662Z,19.91
2023-04-17T16:29:22.234Z,20.14
2023-04-17T16:31:48.643Z,19.82
2023-04-17T16:34:15.192Z,20.27
2023-04-17T16:36:45.414Z,19.73
2023-04-17T16:39:12.528Z,20.11
2023-04-17T16:41:39.148Z,18.71
2023-04-17T16:44:05.694Z,19.32
2023-04-17T16:46:48.269Z,19.98
2023-04-17T16:49:18.447Z,20.32
2023-04-17T16:51:44.828Z,19.68
2023-04-17T16:54:11.345Z,19.11
2023-04-17T16:56:37.845Z,19.25
2023-04-17T16:59:04.693Z,17.89
2023-04-17T17:01:32.169Z,18.59
2023-04-17T17:03:58.693Z,17.81
2023-04-17T17:06:25.274Z,17.92
2023-04-17T17:08:53.066Z,16.70
2023-04-17T17:11:20.719Z,16.69
2023-04-17T17:13:51.097Z,16.68
2023-04-17T17:16:18.545Z,16.91
2023-04-17T17:18:45.612Z,16.82
2023-04-17T17:21:12.077Z,16.32
2023-04-17T17:23:38.556Z,16.55
2023-04-17T17:26:05.337Z,16.41
2023-04-17T17:28:31.873Z,16.56
2023-04-17T17:31:02.981Z,16.75
2023-04-17T17:33:29.888Z,16.66
2023-04-17T17:35:57.141Z,16.20
2023-04-17T17:38:23.880Z,15.82
2023-04-17T17:40:53.307Z,15.87
2023-04-17T17:43:19.771Z,15.72
2023-04-17T17:45:46.374Z,15.67
2023-04-17T17:48:15.315Z,15.77
2023-04-17T17:50:42.782Z,15.92
2023-04-17T17:53:10.023Z,15.61
2023-04-17T17:55:37.864Z,15.46
2023-04-17T17:58:05.738Z,15.42
2023-04-17T18:00:32.356Z,15.74
2023-04-17T18:02:59.228Z,15.83
2023-04-17T18:05:25.755Z,16.00
2023-04-17T18:07:52.135Z,15.96
2023-04-17T18:10:18.660Z,15.00
2023-04-17T18:12:45.020Z,14.76
2023-04-17T18:15:11.747Z,15.12
2023-04-17T18:17:38.174Z,14.90
2023-04-17T18:20:04.820Z,14.49
2023-04-17T18:22:31.242Z,14.36
2023-04-17T18:24:57.616Z,14.19
2023-04-17T18:27:24.008Z,14.11
2023-04-17T18:29:50.383Z,14.39
2023-04-17T18:32:16.961Z,14.66
2023-04-17T18:34:43.843Z,14.69
2023-04-17T18:37:10.381Z,14.71
2023-04-17T18:39:36.821Z,14.83
2023-04-17T18:42:03.238Z,14.82
2023-04-17T18:44:29.647Z,14.84
2023-04-17T18:46:56.076Z,14.61
2023-04-17T18:49:22.525Z,14.14
2023-04-17T18:51:50.001Z,14.29
2023-04-17T18:54:17.262Z,13.68
2023-04-17T18:56:44.292Z,13.68
2023-04-17T18:59:11.220Z,13.66
2023-04-17T19:01:37.811Z,13.43
2023-04-17T19:04:04.721Z,13.37
2023-04-17T19:06:31.512Z,13.44
2023-04-17T19:08:57.936Z,13.30
2023-04-17T19:11:24.363Z,13.26
2023-04-17T19:13:50.842Z,13.37
2023-04-17T19:16:17.293Z,13.45
2023-04-17T19:18:43.687Z,13.23
2023-04-17T19:21:10.426Z,13.35
2023-04-17T19:23:37.380Z,13.05
2023-04-17T19:26:03.934Z,13.08
2023-04-17T19:28:30.383Z,12.99
2023-04-17T19:30:57.809Z,13.20
2023-04-17T19:33:24.261Z,12.89
2023-04-17T19:35:52.204Z,12.85
2023-04-17T19:38:18.724Z,12.83
2023-04-17T19:40:57.909Z,12.78
2023-04-17T19:43:24.289Z,12.76
2023-04-17T19:45:50.695Z,12.51
2023-04-17T19:48:17.090Z,12.84
2023-04-17T19:50:43.493Z,12.79
2023-04-17T19:53:09.885Z,12.28
2023-04-17T19:55:36.327Z,12.19
2023-04-17T19:58:02.698Z,12.23
2023-04-17T20:00:29.155Z,12.23
2023-04-17T20:02:56.074Z,12.05
2023-04-17T20:05:22.745Z,12.28
2023-04-17T20:07:49.166Z,12.27
2023-04-17T20:10:16.753Z,12.17
2023-04-17T20:12:43.128Z,12.09
2023-04-17T20:15:10.102Z,12.07
2023-04-17T20:17:36.516Z,11.99
2023-04-17T20:20:03.036Z,11.85
2023-04-17T20:22:29.421Z,11.83
2023-04-17T20:24:55.805Z,11.56
2023-04-17T20:27:22.213Z,11.67
2023-04-17T20:29:48.639Z,11.77
2023-04-17T20:32:15.170Z,11.60
2023-04-17T20:34:41.549Z,11.61
2023-04-17T20:37:07.938Z,11.29
2023-04-17T20:39:34.322Z,11.15
2023-04-17T20:42:01.514Z,11.14
2023-04-17T20:44:27.973Z,10.90
2023-04-17T20:46:54.362Z,10.90
2023-04-17T20:49:20.976Z,10.76
2023-04-17T20:51:47.383Z,10.92
2023-04-17T20:54:13.971Z,10.95
2023-04-17T20:56:40.483Z,10.71
2023-04-17T20:59:06.934Z,10.83
2023-04-17T21:01:33.330Z,10.77
2023-04-17T21:03:59.814Z,10.87
2023-04-17T21:06:26.888Z,10.68
2023-04-17T21:08:53.825Z,10.55
2023-04-17T21:11:21.317Z,10.63
2023-04-17T21:13:48.073Z,10.72
2023-04-17T21:16:14.529Z,10.70
2023-04-17T21:18:40.919Z,10.87
2023-04-17T21:21:07.339Z,10.58
2023-04-17T21:23:33.760Z,10.65
2023-04-17T21:26:00.436Z,10.45
2023-04-17T21:28:26.819Z,10.42
2023-04-17T21:30:53.306Z,10.65
2023-04-17T21:33:19.682Z,10.64
2023-04-17T21:35:46.183Z,10.44
2023-04-17T21:38:12.644Z,10.52
2023-04-17T21:40:50.519Z,10.61
2023-04-17T21:43:18.047Z,10.22
2023-04-17T21:45:44.473Z,10.19
2023-04-17T21:48:10.893Z,10.14
2023-04-17T21:50:37.251Z,10.22
2023-04-17T21:53:03.636Z,9.96
2023-04-17T21:55:30.039Z,10.06
2023-04-17T21:57:56.477Z,9.95
2023-04-17T22:00:22.876Z,10.02
2023-04-17T22:02:49.368Z,9.92
2023-04-17T22:05:15.799Z,10.00
2023-04-17T22:07:51.695Z,9.51
2023-04-17T22:10:21.097Z,9.59
2023-04-17T22:12:47.482Z,9.43
2023-04-17T22:15:13.841Z,9.47
2023-04-17T22:17:41.014Z,9.37
2023-04-17T22:20:08.292Z,9.34
2023-04-17T22:22:34.656Z,9.36
2023-04-17T22:25:01.205Z,9.49
2023-04-17T22:27:29.054Z,9.42
2023-04-17T22:29:55.584Z,9.34
2023-04-17T22:32:21.995Z,9.51
2023-04-17T22:34:49.398Z,9.57
2023-04-17T22:37:15.978Z,9.60
2023-04-17T22:39:42.366Z,9.44
2023-04-17T22:42:08.752Z,9.25
2023-04-17T22:44:35.684Z,9.07
2023-04-17T22:47:02.038Z,9.10
2023-04-17T22:49:28.404Z,9.11
2023-04-17T22:51:54.789Z,9.12
2023-04-17T22:54:23.182Z,9.12
2023-04-17T22:56:49.826Z,9.11
2023-04-17T22:59:16.284Z,9.19
2023-04-17T23:01:42.692Z,9.03
2023-04-17T23:04:10.318Z,8.89
2023-04-17T23:06:36.762Z,8.60
2023-04-17T23:09:04.696Z,8.67
2023-04-17T23:11:31.880Z,8.64
2023-04-17T23:13:58.368Z,8.68
2023-04-17T23:16:24.791Z,8.65
2023-04-17T23:18:51.227Z,8.76
2023-04-17T23:21:17.631Z,8.66
2023-04-17T23:23:44.026Z,8.52
2023-04-17T23:26:15.098Z,8.59
2023-04-17T23:28:41.618Z,8.50
2023-04-17T23:31:08.046Z,8.52
2023-04-17T23:33:34.574Z,8.55
2023-04-17T23:36:01.066Z,8.45
2023-04-17T23:38:27.602Z,8.44
2023-04-17T23:40:54.155Z,8.26
2023-04-17T23:43:20.860Z,8.26
2023-04-17T23:45:47.234Z,8.37
2023-04-17T23:48:13.654Z,8.53
2023-04-17T23:50:40.853Z,8.38
2023-04-17T23:53:07.469Z,8.38
2023-04-17T23:55:34.375Z,8.27
2023-04-17T23:58:00.751Z,8.21
